sensor_id;sensor_type;location;lat;lon;timestamp;pressure;altitude;pressure_sealevel;temperature;humidity
69707;BME280;56975;55.726;37.566;2023-07-02T00:00:00;98060.0;;;17.8;85.5
69707;BME280;56975;55.726;37.566;2023-07-02T00:05:00;98070.0;;;17.7;86.0
69707;BME280;56975;55.726;37.566;2023-07-02T00:10:00;98070.0;;;17.8;85.7
69707;BME280;56975;55.726;37.566;2023-07-02T00:15:00;98070.0;;;17.6;87.1
69707;BME280;56975;55.726;37.566;2023-07-02T00:20:00;98080.0;;;17.6;87.1
69707;BME280;56975;55.726;37.566;2023-07-02T00:25:00;98070.0;;;17.6;87.6
69707;BME280;56975;55.726;37.566;2023-07-02T00:30:00;98070.0;;;17.5;88.1
69707;BME280;56975;55.726;37.566;2023-07-02T00:35:00;98070.0;;;17.2;90.0
69707;BME280;56975;55.726;37.566;2023-07-02T00:40:00;98080.0;;;17.2;90.1
69707;BME280;56975;55.726;37.566;2023-07-02T00:45:00;98070.0;;;17.1;90.6
69707;BME280;56975;55.726;37.566;2023-07-02T00:50:00;98080.0;;;17.1;91.1
69707;BME280;56975;55.726;37.566;2023-07-02T00:55:00;98080.0;;;17.0;91.7
69707;BME280;56975;55.726;37.566;2023-07-02T01:00:00;98100.0;;;16.9;92.6
69707;BME280;56975;55.726;37.566;2023-07-02T01:05:00;98090.0;;;16.9;92.8
69707;BME280;56975;55.726;37.566;2023-07-02T01:10:00;98100.0;;;16.7;94.8
69707;BME280;56975;55.726;37.566;2023-07-02T01:15:03;98100.0;;;16.9;93.6
69707;BME280;56975;55.726;37.566;2023-07-02T01:20:00;98090.0;;;16.9;93.6
69707;BME280;56975;55.726;37.566;2023-07-02T01:25:00;98090.0;;;16.8;94.4
69707;BME280;56975;55.726;37.566;2023-07-02T01:30:00;98100.0;;;17.0;93.9
69707;BME280;56975;55.726;37.566;2023-07-02T01:35:00;98090.0;;;16.9;93.9
69707;BME280;56975;55.726;37.566;2023-07-02T01:40:00;98100.0;;;16.9;93.9
69707;BME280;56975;55.726;37.566;2023-07-02T01:45:00;98100.0;;;16.8;94.9
69707;BME280;56975;55.726;37.566;2023-07-02T01:50:03;98100.0;;;17.1;93.3
69707;BME280;56975;55.726;37.566;2023-07-02T01:55:01;98100.0;;;17.1;93.3
69707;BME280;56975;55.726;37.566;2023-07-02T02:00:00;98110.0;;;17.0;93.6
69707;BME280;56975;55.726;37.566;2023-07-02T02:05:00;98110.0;;;17.0;93.6
69707;BME280;56975;55.726;37.566;2023-07-02T02:10:00;98120.0;;;16.8;94.6
69707;BME280;56975;55.726;37.566;2023-07-02T02:15:00;98120.0;;;16.9;94.7
69707;BME280;56975;55.726;37.566;2023-07-02T02:20:00;98110.0;;;16.7;95.6
69707;BME280;56975;55.726;37.566;2023-07-02T02:25:00;98100.0;;;16.8;95.4
69707;BME280;56975;55.726;37.566;2023-07-02T02:30:00;98100.0;;;17.1;93.8
69707;BME280;56975;55.726;37.566;2023-07-02T02:35:00;98110.0;;;17.2;93.2
69707;BME280;56975;55.726;37.566;2023-07-02T02:40:00;98110.0;;;17.4;91.7
69707;BME280;56975;55.726;37.566;2023-07-02T02:45:00;98110.0;;;17.0;93.8
69707;BME280;56975;55.726;37.566;2023-07-02T02:50:00;98110.0;;;17.2;93.0
69707;BME280;56975;55.726;37.566;2023-07-02T02:55:00;98120.0;;;17.3;92.2
69707;BME280;56975;55.726;37.566;2023-07-02T03:00:00;98120.0;;;17.4;91.4
69707;BME280;56975;55.726;37.566;2023-07-02T03:05:00;98130.0;;;17.7;90.2
69707;BME280;56975;55.726;37.566;2023-07-02T03:10:00;98130.0;;;17.8;89.7
69707;BME280;56975;55.726;37.566;2023-07-02T03:15:00;98130.0;;;17.9;88.1
69707;BME280;56975;55.726;37.566;2023-07-02T03:20:00;98150.0;;;17.8;89.1
69707;BME280;56975;55.726;37.566;2023-07-02T03:25:00;98150.0;;;17.8;88.9
69707;BME280;56975;55.726;37.566;2023-07-02T03:30:00;98150.0;;;18.0;87.1
69707;BME280;56975;55.726;37.566;2023-07-02T03:35:00;98160.0;;;17.6;89.3
69707;BME280;56975;55.726;37.566;2023-07-02T03:40:00;98150.0;;;17.6;89.1
69707;BME280;56975;55.726;37.566;2023-07-02T03:45:00;98150.0;;;17.8;88.3
69707;BME280;56975;55.726;37.566;2023-07-02T03:50:00;98150.0;;;17.5;89.7
69707;BME280;56975;55.726;37.566;2023-07-02T03:55:00;98160.0;;;17.9;87.5
69707;BME280;56975;55.726;37.566;2023-07-02T04:00:00;98160.0;;;17.9;86.8
69707;BME280;56975;55.726;37.566;2023-07-02T04:05:00;98160.0;;;18.1;86.3
69707;BME280;56975;55.726;37.566;2023-07-02T04:10:00;98160.0;;;18.0;85.5
69707;BME280;56975;55.726;37.566;2023-07-02T04:15:00;98170.0;;;18.1;84.4
69707;BME280;56975;55.726;37.566;2023-07-02T04:20:01;98170.0;;;18.2;83.4
69707;BME280;56975;55.726;37.566;2023-07-02T04:25:00;98180.0;;;18.2;82.8
69707;BME280;56975;55.726;37.566;2023-07-02T04:30:00;98180.0;;;18.2;83.9
69707;BME280;56975;55.726;37.566;2023-07-02T04:35:00;98180.0;;;18.4;82.3
69707;BME280;56975;55.726;37.566;2023-07-02T04:40:00;98180.0;;;18.8;80.5
69707;BME280;56975;55.726;37.566;2023-07-02T04:45:00;98190.0;;;18.8;80.2
69707;BME280;56975;55.726;37.566;2023-07-02T04:50:00;98200.0;;;18.9;80.2
69707;BME280;56975;55.726;37.566;2023-07-02T04:55:00;98200.0;;;19.3;78.5
69707;BME280;56975;55.726;37.566;2023-07-02T05:00:00;98200.0;;;19.3;77.9
69707;BME280;56975;55.726;37.566;2023-07-02T05:05:00;98200.0;;;19.5;77.2
69707;BME280;56975;55.726;37.566;2023-07-02T05:10:00;98190.0;;;19.7;74.8
69707;BME280;56975;55.726;37.566;2023-07-02T05:15:00;98190.0;;;19.3;76.1
69707;BME280;56975;55.726;37.566;2023-07-02T05:20:00;98190.0;;;19.3;76.4
69707;BME280;56975;55.726;37.566;2023-07-02T05:25:00;98190.0;;;19.5;75.9
69707;BME280;56975;55.726;37.566;2023-07-02T05:30:00;98200.0;;;19.5;76.8
69707;BME280;56975;55.726;37.566;2023-07-02T05:35:00;98190.0;;;19.6;74.9
69707;BME280;56975;55.726;37.566;2023-07-02T05:40:00;98200.0;;;19.6;75.5
69707;BME280;56975;55.726;37.566;2023-07-02T05:45:00;98200.0;;;20.0;74.5
69707;BME280;56975;55.726;37.566;2023-07-02T05:50:00;98200.0;;;20.1;74.0
69707;BME280;56975;55.726;37.566;2023-07-02T05:55:00;98200.0;;;19.8;73.8
69707;BME280;56975;55.726;37.566;2023-07-02T06:00:00;98210.0;;;20.0;73.9
69707;BME280;56975;55.726;37.566;2023-07-02T06:05:00;98210.0;;;20.6;70.6
69707;BME280;56975;55.726;37.566;2023-07-02T06:10:00;98210.0;;;20.6;68.3
69707;BME280;56975;55.726;37.566;2023-07-02T06:15:00;98210.0;;;20.7;67.5
69707;BME280;56975;55.726;37.566;2023-07-02T06:20:02;98210.0;;;20.8;68.8
69707;BME280;56975;55.726;37.566;2023-07-02T06:25:00;98210.0;;;21.0;67.2
69707;BME280;56975;55.726;37.566;2023-07-02T06:30:00;98210.0;;;21.2;65.4
69707;BME280;56975;55.726;37.566;2023-07-02T06:35:00;98220.0;;;21.2;64.5
69707;BME280;56975;55.726;37.566;2023-07-02T06:40:00;98220.0;;;21.4;64.7
69707;BME280;56975;55.726;37.566;2023-07-02T06:45:00;98220.0;;;21.2;64.7
69707;BME280;56975;55.726;37.566;2023-07-02T06:50:00;98210.0;;;21.1;63.6
69707;BME280;56975;55.726;37.566;2023-07-02T06:55:00;98210.0;;;21.4;64.2
69707;BME280;56975;55.726;37.566;2023-07-02T07:00:00;98210.0;;;21.8;60.1
69707;BME280;56975;55.726;37.566;2023-07-02T07:05:00;98220.0;;;22.1;58.4
69707;BME280;56975;55.726;37.566;2023-07-02T07:10:00;98220.0;;;22.2;59.1
69707;BME280;56975;55.726;37.566;2023-07-02T07:15:00;98220.0;;;22.2;59.7
69707;BME280;56975;55.726;37.566;2023-07-02T07:20:00;98230.0;;;22.8;56.7
69707;BME280;56975;55.726;37.566;2023-07-02T07:25:00;98240.0;;;22.9;53.7
69707;BME280;56975;55.726;37.566;2023-07-02T07:30:00;98230.0;;;22.9;55.0
69707;BME280;56975;55.726;37.566;2023-07-02T07:35:00;98240.0;;;23.1;53.6
69707;BME280;56975;55.726;37.566;2023-07-02T07:40:00;98250.0;;;22.6;55.8
69707;BME280;56975;55.726;37.566;2023-07-02T07:45:01;98240.0;;;22.6;54.5
69707;BME280;56975;55.726;37.566;2023-07-02T07:50:00;98240.0;;;22.3;55.3
69707;BME280;56975;55.726;37.566;2023-07-02T07:55:00;98240.0;;;22.9;53.7
69707;BME280;56975;55.726;37.566;2023-07-02T08:00:00;98230.0;;;23.1;52.7
69707;BME280;56975;55.726;37.566;2023-07-02T08:05:00;98230.0;;;23.2;52.9
69707;BME280;56975;55.726;37.566;2023-07-02T08:10:00;98230.0;;;23.5;50.6
69707;BME280;56975;55.726;37.566;2023-07-02T08:15:00;98240.0;;;23.1;52.0
69707;BME280;56975;55.726;37.566;2023-07-02T08:20:00;98240.0;;;22.9;52.6
69707;BME280;56975;55.726;37.566;2023-07-02T08:25:00;98240.0;;;22.9;53.5
69707;BME280;56975;55.726;37.566;2023-07-02T08:30:00;98240.0;;;22.9;54.3
69707;BME280;56975;55.726;37.566;2023-07-02T08:35:00;98240.0;;;23.3;51.2
69707;BME280;56975;55.726;37.566;2023-07-02T08:40:00;98240.0;;;23.1;51.6
69707;BME280;56975;55.726;37.566;2023-07-02T08:45:00;98240.0;;;23.3;51.7
69707;BME280;56975;55.726;37.566;2023-07-02T08:50:01;98240.0;;;23.8;49.3
69707;BME280;56975;55.726;37.566;2023-07-02T08:55:00;98240.0;;;23.7;49.6
69707;BME280;56975;55.726;37.566;2023-07-02T09:00:00;98240.0;;;23.6;49.9
69707;BME280;56975;55.726;37.566;2023-07-02T09:05:00;98240.0;;;24.6;47.1
69707;BME280;56975;55.726;37.566;2023-07-02T09:10:00;98240.0;;;25.0;45.0
69707;BME280;56975;55.726;37.566;2023-07-02T09:15:01;98250.0;;;25.6;43.6
69707;BME280;56975;55.726;37.566;2023-07-02T09:20:01;98240.0;;;25.6;43.5
69707;BME280;56975;55.726;37.566;2023-07-02T09:25:01;98260.0;;;26.9;40.4
69707;BME280;56975;55.726;37.566;2023-07-02T09:30:06;98250.0;;;28.0;39.3
69707;BME280;56975;55.726;37.566;2023-07-02T09:35:00;98260.0;;;27.1;37.3
69707;BME280;56975;55.726;37.566;2023-07-02T09:40:00;98250.0;;;26.7;36.1
69707;BME280;56975;55.726;37.566;2023-07-02T09:45:01;98260.0;;;26.2;37.5
69707;BME280;56975;55.726;37.566;2023-07-02T09:50:03;98260.0;;;27.2;36.2
69707;BME280;56975;55.726;37.566;2023-07-02T09:55:00;98240.0;;;27.2;36.5
69707;BME280;56975;55.726;37.566;2023-07-02T10:00:00;98240.0;;;27.4;36.6
69707;BME280;56975;55.726;37.566;2023-07-02T10:05:00;98250.0;;;28.2;35.8
69707;BME280;56975;55.726;37.566;2023-07-02T10:10:00;98240.0;;;28.8;34.8
69707;BME280;56975;55.726;37.566;2023-07-02T10:15:00;98250.0;;;29.8;33.3
69707;BME280;56975;55.726;37.566;2023-07-02T10:20:02;98240.0;;;28.9;34.3
69707;BME280;56975;55.726;37.566;2023-07-02T10:25:00;98250.0;;;27.7;36.9
69707;BME280;56975;55.726;37.566;2023-07-02T10:30:00;98250.0;;;27.0;37.6
69707;BME280;56975;55.726;37.566;2023-07-02T10:35:00;98260.0;;;25.4;39.7
69707;BME280;56975;55.726;37.566;2023-07-02T10:40:03;98260.0;;;24.6;41.8
69707;BME280;56975;55.726;37.566;2023-07-02T10:45:00;98270.0;;;24.8;41.5
69707;BME280;56975;55.726;37.566;2023-07-02T10:50:00;98260.0;;;25.3;41.1
69707;BME280;56975;55.726;37.566;2023-07-02T10:55:00;98260.0;;;26.5;39.1
69707;BME280;56975;55.726;37.566;2023-07-02T11:00:04;98260.0;;;27.4;37.0
69707;BME280;56975;55.726;37.566;2023-07-02T11:05:00;98270.0;;;28.4;35.5
69707;BME280;56975;55.726;37.566;2023-07-02T11:10:00;98260.0;;;29.0;34.9
69707;BME280;56975;55.726;37.566;2023-07-02T11:15:08;98270.0;;;29.5;32.6
69707;BME280;56975;55.726;37.566;2023-07-02T11:20:00;98270.0;;;30.5;30.3
69707;BME280;56975;55.726;37.566;2023-07-02T11:25:09;98280.0;;;29.6;30.0
69707;BME280;56975;55.726;37.566;2023-07-02T11:30:00;98270.0;;;28.3;32.9
69707;BME280;56975;55.726;37.566;2023-07-02T11:35:00;98280.0;;;30.7;28.8
69707;BME280;56975;55.726;37.566;2023-07-02T11:40:00;98280.0;;;31.2;27.4
69707;BME280;56975;55.726;37.566;2023-07-02T11:45:00;98280.0;;;30.7;28.0
69707;BME280;56975;55.726;37.566;2023-07-02T11:50:00;98270.0;;;31.5;27.0
69707;BME280;56975;55.726;37.566;2023-07-02T11:55:00;98280.0;;;31.5;27.4
69707;BME280;56975;55.726;37.566;2023-07-02T12:00:00;98280.0;;;32.1;26.1
69707;BME280;56975;55.726;37.566;2023-07-02T12:05:00;98280.0;;;32.5;24.8
69707;BME280;56975;55.726;37.566;2023-07-02T12:10:00;98280.0;;;31.5;25.3
69707;BME280;56975;55.726;37.566;2023-07-02T12:15:00;98280.0;;;31.3;25.7
69707;BME280;56975;55.726;37.566;2023-07-02T12:20:00;98270.0;;;30.8;26.7
69707;BME280;56975;55.726;37.566;2023-07-02T12:25:00;98280.0;;;32.0;25.6
69707;BME280;56975;55.726;37.566;2023-07-02T12:30:00;98280.0;;;32.1;24.2
69707;BME280;56975;55.726;37.566;2023-07-02T12:35:00;98290.0;;;30.8;25.9
69707;BME280;56975;55.726;37.566;2023-07-02T12:40:00;98280.0;;;30.8;26.4
69707;BME280;56975;55.726;37.566;2023-07-02T12:45:00;98280.0;;;30.7;26.5
69707;BME280;56975;55.726;37.566;2023-07-02T12:50:00;98280.0;;;30.8;25.9
69707;BME280;56975;55.726;37.566;2023-07-02T12:55:00;98280.0;;;30.9;26.6
69707;BME280;56975;55.726;37.566;2023-07-02T13:00:00;98300.0;;;31.0;26.8
69707;BME280;56975;55.726;37.566;2023-07-02T13:05:00;98280.0;;;30.1;27.2
69707;BME280;56975;55.726;37.566;2023-07-02T13:10:00;98280.0;;;30.7;26.6
69707;BME280;56975;55.726;37.566;2023-07-02T13:15:00;98280.0;;;30.5;25.7
69707;BME280;56975;55.726;37.566;2023-07-02T13:20:00;98290.0;;;30.6;25.7
69707;BME280;56975;55.726;37.566;2023-07-02T13:25:00;98290.0;;;31.1;25.3
69707;BME280;56975;55.726;37.566;2023-07-02T13:30:00;98280.0;;;31.8;24.4
69707;BME280;56975;55.726;37.566;2023-07-02T13:35:00;98280.0;;;31.7;25.1
69707;BME280;56975;55.726;37.566;2023-07-02T13:40:00;98310.0;;;31.7;24.1
69707;BME280;56975;55.726;37.566;2023-07-02T13:45:00;98290.0;;;30.9;25.3
69707;BME280;56975;55.726;37.566;2023-07-02T13:50:00;98280.0;;;31.2;25.5
69707;BME280;56975;55.726;37.566;2023-07-02T13:55:00;98290.0;;;32.0;24.1
69707;BME280;56975;55.726;37.566;2023-07-02T14:00:00;98290.0;;;31.4;24.7
69707;BME280;56975;55.726;37.566;2023-07-02T14:05:00;98290.0;;;32.4;22.9
69707;BME280;56975;55.726;37.566;2023-07-02T14:10:00;98290.0;;;32.0;22.7
69707;BME280;56975;55.726;37.566;2023-07-02T14:15:00;98290.0;;;31.7;23.7
69707;BME280;56975;55.726;37.566;2023-07-02T14:20:00;98300.0;;;31.5;24.2
69707;BME280;56975;55.726;37.566;2023-07-02T14:25:00;98290.0;;;32.0;23.7
69707;BME280;56975;55.726;37.566;2023-07-02T14:30:00;98290.0;;;31.3;24.9
69707;BME280;56975;55.726;37.566;2023-07-02T14:35:00;98290.0;;;32.1;23.4
69707;BME280;56975;55.726;37.566;2023-07-02T14:40:00;98290.0;;;32.1;23.3
69707;BME280;56975;55.726;37.566;2023-07-02T14:45:00;98300.0;;;31.1;24.5
69707;BME280;56975;55.726;37.566;2023-07-02T14:50:00;98290.0;;;31.4;25.0
69707;BME280;56975;55.726;37.566;2023-07-02T14:55:00;98300.0;;;31.4;25.0
69707;BME280;56975;55.726;37.566;2023-07-02T15:00:00;98290.0;;;30.0;26.6
69707;BME280;56975;55.726;37.566;2023-07-02T15:05:00;98290.0;;;30.2;26.6
69707;BME280;56975;55.726;37.566;2023-07-02T15:10:00;98290.0;;;30.9;25.8
69707;BME280;56975;55.726;37.566;2023-07-02T15:15:00;98300.0;;;30.2;27.0
69707;BME280;56975;55.726;37.566;2023-07-02T15:20:00;98310.0;;;30.0;27.3
69707;BME280;56975;55.726;37.566;2023-07-02T15:25:00;98300.0;;;29.2;28.3
69707;BME280;56975;55.726;37.566;2023-07-02T15:30:00;98290.0;;;29.4;28.3
69707;BME280;56975;55.726;37.566;2023-07-02T15:35:00;98300.0;;;29.6;28.5
69707;BME280;56975;55.726;37.566;2023-07-02T15:40:00;98290.0;;;29.3;29.2
69707;BME280;56975;55.726;37.566;2023-07-02T15:45:00;98290.0;;;29.3;29.2
69707;BME280;56975;55.726;37.566;2023-07-02T15:50:00;98300.0;;;28.8;30.0
69707;BME280;56975;55.726;37.566;2023-07-02T15:55:00;98290.0;;;29.3;29.4
69707;BME280;56975;55.726;37.566;2023-07-02T16:00:00;98300.0;;;28.7;30.0
69707;BME280;56975;55.726;37.566;2023-07-02T16:05:00;98300.0;;;28.8;30.1
69707;BME280;56975;55.726;37.566;2023-07-02T16:10:02;98300.0;;;28.6;30.5
69707;BME280;56975;55.726;37.566;2023-07-02T16:15:00;98290.0;;;28.4;30.6
69707;BME280;56975;55.726;37.566;2023-07-02T16:20:00;98300.0;;;28.3;30.9
69707;BME280;56975;55.726;37.566;2023-07-02T16:25:00;98300.0;;;27.9;31.7
69707;BME280;56975;55.726;37.566;2023-07-02T16:30:00;98300.0;;;28.2;31.0
69707;BME280;56975;55.726;37.566;2023-07-02T16:35:00;98290.0;;;27.5;32.1
69707;BME280;56975;55.726;37.566;2023-07-02T16:40:01;98300.0;;;27.9;31.3
69707;BME280;56975;55.726;37.566;2023-07-02T16:45:00;98300.0;;;27.4;31.8
69707;BME280;56975;55.726;37.566;2023-07-02T16:50:00;98290.0;;;27.0;32.6
69707;BME280;56975;55.726;37.566;2023-07-02T16:55:00;98300.0;;;26.7;33.4
69707;BME280;56975;55.726;37.566;2023-07-02T17:00:00;98300.0;;;27.1;32.5
69707;BME280;56975;55.726;37.566;2023-07-02T17:05:00;98300.0;;;26.6;33.7
69707;BME280;56975;55.726;37.566;2023-07-02T17:10:00;98310.0;;;26.6;33.4
69707;BME280;56975;55.726;37.566;2023-07-02T17:15:00;98310.0;;;26.5;33.3
69707;BME280;56975;55.726;37.566;2023-07-02T17:20:00;98320.0;;;26.2;33.6
69707;BME280;56975;55.726;37.566;2023-07-02T17:25:00;98320.0;;;25.2;35.3
69707;BME280;56975;55.726;37.566;2023-07-02T17:30:03;98320.0;;;24.6;36.8
69707;BME280;56975;55.726;37.566;2023-07-02T17:35:00;98320.0;;;24.2;37.4
69707;BME280;56975;55.726;37.566;2023-07-02T17:40:00;98330.0;;;24.2;37.2
69707;BME280;56975;55.726;37.566;2023-07-02T17:45:00;98330.0;;;23.7;38.3
69707;BME280;56975;55.726;37.566;2023-07-02T17:50:00;98340.0;;;23.3;38.8
69707;BME280;56975;55.726;37.566;2023-07-02T17:55:00;98340.0;;;23.1;39.4
69707;BME280;56975;55.726;37.566;2023-07-02T18:00:00;98350.0;;;22.9;39.9
69707;BME280;56975;55.726;37.566;2023-07-02T18:05:00;98350.0;;;22.8;39.9
69707;BME280;56975;55.726;37.566;2023-07-02T18:10:00;98360.0;;;22.7;40.1
69707;BME280;56975;55.726;37.566;2023-07-02T18:15:00;98360.0;;;22.4;40.9
69707;BME280;56975;55.726;37.566;2023-07-02T18:20:00;98350.0;;;22.3;41.1
69707;BME280;56975;55.726;37.566;2023-07-02T18:25:00;98350.0;;;22.2;41.5
69707;BME280;56975;55.726;37.566;2023-07-02T18:30:00;98350.0;;;22.0;42.0
69707;BME280;56975;55.726;37.566;2023-07-02T18:35:00;98350.0;;;21.9;42.4
69707;BME280;56975;55.726;37.566;2023-07-02T18:40:00;98350.0;;;21.8;43.0
69707;BME280;56975;55.726;37.566;2023-07-02T18:45:00;98350.0;;;21.7;43.4
69707;BME280;56975;55.726;37.566;2023-07-02T18:50:00;98360.0;;;21.6;43.8
69707;BME280;56975;55.726;37.566;2023-07-02T18:55:00;98350.0;;;21.5;44.3
69707;BME280;56975;55.726;37.566;2023-07-02T19:00:01;98360.0;;;21.3;45.7
69707;BME280;56975;55.726;37.566;2023-07-02T19:05:00;98360.0;;;21.2;45.4
69707;BME280;56975;55.726;37.566;2023-07-02T19:10:00;98340.0;;;21.2;45.8
69707;BME280;56975;55.726;37.566;2023-07-02T19:15:00;98350.0;;;21.0;46.3
69707;BME280;56975;55.726;37.566;2023-07-02T19:20:00;98350.0;;;21.0;46.4
69707;BME280;56975;55.726;37.566;2023-07-02T19:25:00;98350.0;;;20.6;48.7
69707;BME280;56975;55.726;37.566;2023-07-02T19:30:00;98350.0;;;20.5;49.1
69707;BME280;56975;55.726;37.566;2023-07-02T19:35:00;98350.0;;;20.5;49.5
69707;BME280;56975;55.726;37.566;2023-07-02T19:40:00;98350.0;;;20.5;48.9
69707;BME280;56975;55.726;37.566;2023-07-02T19:45:00;98350.0;;;20.3;50.0
69707;BME280;56975;55.726;37.566;2023-07-02T19:50:00;98360.0;;;20.2;50.6
69707;BME280;56975;55.726;37.566;2023-07-02T19:55:03;98360.0;;;20.2;50.5
69707;BME280;56975;55.726;37.566;2023-07-02T20:00:00;98350.0;;;20.2;49.9
69707;BME280;56975;55.726;37.566;2023-07-02T20:05:00;98360.0;;;20.2;49.4
69707;BME280;56975;55.726;37.566;2023-07-02T20:10:00;98360.0;;;20.2;49.5
69707;BME280;56975;55.726;37.566;2023-07-02T20:15:01;98360.0;;;20.3;48.9
69707;BME280;56975;55.726;37.566;2023-07-02T20:20:00;98350.0;;;20.2;49.3
69707;BME280;56975;55.726;37.566;2023-07-02T20:25:00;98350.0;;;20.0;51.0
69707;BME280;56975;55.726;37.566;2023-07-02T20:30:00;98350.0;;;19.9;51.3
69707;BME280;56975;55.726;37.566;2023-07-02T20:35:00;98350.0;;;19.8;51.2
69707;BME280;56975;55.726;37.566;2023-07-02T20:40:00;98360.0;;;19.8;51.7
69707;BME280;56975;55.726;37.566;2023-07-02T20:45:00;98350.0;;;19.8;52.1
69707;BME280;56975;55.726;37.566;2023-07-02T20:50:00;98350.0;;;19.7;52.9
69707;BME280;56975;55.726;37.566;2023-07-02T20:55:00;98350.0;;;19.5;54.6
69707;BME280;56975;55.726;37.566;2023-07-02T21:00:00;98350.0;;;19.5;54.6
69707;BME280;56975;55.726;37.566;2023-07-02T21:05:00;98350.0;;;19.4;54.6
69707;BME280;56975;55.726;37.566;2023-07-02T21:10:01;98350.0;;;19.4;54.8
69707;BME280;56975;55.726;37.566;2023-07-02T21:15:00;98340.0;;;19.2;55.3
69707;BME280;56975;55.726;37.566;2023-07-02T21:20:00;98350.0;;;19.1;56.6
69707;BME280;56975;55.726;37.566;2023-07-02T21:25:00;98340.0;;;19.0;56.7
69707;BME280;56975;55.726;37.566;2023-07-02T21:30:00;98340.0;;;19.0;56.7
69707;BME280;56975;55.726;37.566;2023-07-02T21:35:00;98340.0;;;18.9;56.9
69707;BME280;56975;55.726;37.566;2023-07-02T21:40:00;98340.0;;;19.0;56.7
69707;BME280;56975;55.726;37.566;2023-07-02T21:45:00;98340.0;;;19.0;56.3
69707;BME280;56975;55.726;37.566;2023-07-02T21:50:00;98330.0;;;18.7;57.6
69707;BME280;56975;55.726;37.566;2023-07-02T21:55:00;98330.0;;;18.7;56.7
69707;BME280;56975;55.726;37.566;2023-07-02T22:00:00;98340.0;;;18.8;56.5
69707;BME280;56975;55.726;37.566;2023-07-02T22:05:00;98330.0;;;18.8;56.9
69707;BME280;56975;55.726;37.566;2023-07-02T22:10:00;98330.0;;;18.7;56.3
69707;BME280;56975;55.726;37.566;2023-07-02T22:15:00;98320.0;;;18.8;55.9
69707;BME280;56975;55.726;37.566;2023-07-02T22:20:02;98330.0;;;18.8;55.5
69707;BME280;56975;55.726;37.566;2023-07-02T22:25:00;98330.0;;;18.7;55.6
69707;BME280;56975;55.726;37.566;2023-07-02T22:30:00;98320.0;;;18.8;55.3
69707;BME280;56975;55.726;37.566;2023-07-02T22:35:00;98320.0;;;18.9;55.2
69707;BME280;56975;55.726;37.566;2023-07-02T22:40:00;98310.0;;;18.9;55.2
69707;BME280;56975;55.726;37.566;2023-07-02T22:45:00;98320.0;;;18.8;55.5
69707;BME280;56975;55.726;37.566;2023-07-02T22:50:00;98310.0;;;18.8;55.6
69707;BME280;56975;55.726;37.566;2023-07-02T22:55:00;98300.0;;;18.8;55.5
69707;BME280;56975;55.726;37.566;2023-07-02T23:00:00;98300.0;;;18.9;55.2
69707;BME280;56975;55.726;37.566;2023-07-02T23:05:00;98300.0;;;18.9;55.1
69707;BME280;56975;55.726;37.566;2023-07-02T23:10:00;98300.0;;;18.8;55.6
69707;BME280;56975;55.726;37.566;2023-07-02T23:15:00;98300.0;;;18.8;55.7
69707;BME280;56975;55.726;37.566;2023-07-02T23:20:00;98290.0;;;18.6;56.2
69707;BME280;56975;55.726;37.566;2023-07-02T23:25:00;98290.0;;;18.6;56.4
69707;BME280;56975;55.726;37.566;2023-07-02T23:30:00;98290.0;;;18.6;56.3
69707;BME280;56975;55.726;37.566;2023-07-02T23:35:00;98290.0;;;18.6;56.4
69707;BME280;56975;55.726;37.566;2023-07-02T23:40:00;98280.0;;;18.6;56.7
69707;BME280;56975;55.726;37.566;2023-07-02T23:45:00;98270.0;;;18.7;56.7
69707;BME280;56975;55.726;37.566;2023-07-02T23:50:00;98280.0;;;18.7;56.8
69707;BME280;56975;55.726;37.566;2023-07-02T23:55:00;98280.0;;;18.8;56.6
